sensor_id;sensor_type;location;lat;lon;timestamp;P1;durP1;ratioP1;P2;durP2;ratioP2
9716;SDS011;4897;43.570;27.832;2022-07-23T00:01:27;8.02;;;2.80;;
9716;SDS011;4897;43.570;27.832;2022-07-23T00:03:54;9.32;;;2.83;;
9716;SDS011;4897;43.570;27.832;2022-07-23T00:06:22;3.83;;;2.50;;
9716;SDS011;4897;43.570;27.832;2022-07-23T00:08:49;10.52;;;3.17;;
9716;SDS011;4897;43.570;27.832;2022-07-23T00:11:17;11.25;;;2.75;;
9716;SDS011;4897;43.570;27.832;2022-07-23T00:13:44;6.07;;;3.10;;
9716;SDS011;4897;43.570;27.832;2022-07-23T00:16:11;8.95;;;2.88;;
9716;SDS011;4897;43.570;27.832;2022-07-23T00:18:39;5.40;;;2.60;;
9716;SDS011;4897;43.570;27.832;2022-07-23T00:21:06;8.50;;;2.75;;
9716;SDS011;4897;43.570;27.832;2022-07-23T00:23:33;4.88;;;3.05;;
9716;SDS011;4897;43.570;27.832;2022-07-23T00:26:03;11.43;;;3.53;;
9716;SDS011;4897;43.570;27.832;2022-07-23T00:28:34;4.32;;;2.83;;
9716;SDS011;4897;43.570;27.832;2022-07-23T00:31:01;9.27;;;2.80;;
9716;SDS011;4897;43.570;27.832;2022-07-23T00:33:28;10.10;;;2.85;;
9716;SDS011;4897;43.570;27.832;2022-07-23T00:35:57;4.82;;;3.28;;
9716;SDS011;4897;43.570;27.832;2022-07-23T00:38:24;9.25;;;4.07;;
9716;SDS011;4897;43.570;27.832;2022-07-23T00:40:51;8.45;;;3.47;;
9716;SDS011;4897;43.570;27.832;2022-07-23T00:43:19;7.32;;;3.50;;
9716;SDS011;4897;43.570;27.832;2022-07-23T00:45:47;7.03;;;2.78;;
9716;SDS011;4897;43.570;27.832;2022-07-23T00:48:14;6.13;;;2.67;;
9716;SDS011;4897;43.570;27.832;2022-07-23T00:50:41;6.45;;;2.85;;
9716;SDS011;4897;43.570;27.832;2022-07-23T00:53:10;9.63;;;2.45;;
9716;SDS011;4897;43.570;27.832;2022-07-23T00:55:37;3.88;;;2.60;;
9716;SDS011;4897;43.570;27.832;2022-07-23T00:58:04;5.63;;;2.90;;
9716;SDS011;4897;43.570;27.832;2022-07-23T01:00:31;4.00;;;2.58;;
9716;SDS011;4897;43.570;27.832;2022-07-23T01:02:58;7.10;;;2.80;;
9716;SDS011;4897;43.570;27.832;2022-07-23T01:05:26;2.85;;;2.08;;
9716;SDS011;4897;43.570;27.832;2022-07-23T01:07:53;4.07;;;2.42;;
9716;SDS011;4897;43.570;27.832;2022-07-23T01:10:22;5.00;;;2.28;;
9716;SDS011;4897;43.570;27.832;2022-07-23T01:12:58;4.72;;;2.20;;
9716;SDS011;4897;43.570;27.832;2022-07-23T01:15:26;4.35;;;2.40;;
9716;SDS011;4897;43.570;27.832;2022-07-23T01:17:53;5.97;;;2.30;;
9716;SDS011;4897;43.570;27.832;2022-07-23T01:20:20;4.50;;;2.45;;
9716;SDS011;4897;43.570;27.832;2022-07-23T01:22:49;4.78;;;2.42;;
9716;SDS011;4897;43.570;27.832;2022-07-23T01:25:16;4.25;;;2.30;;
9716;SDS011;4897;43.570;27.832;2022-07-23T01:27:43;8.18;;;2.50;;
9716;SDS011;4897;43.570;27.832;2022-07-23T01:30:11;5.90;;;2.35;;
9716;SDS011;4897;43.570;27.832;2022-07-23T01:32:38;13.80;;;2.83;;
9716;SDS011;4897;43.570;27.832;2022-07-23T01:35:06;5.57;;;2.45;;
9716;SDS011;4897;43.570;27.832;2022-07-23T01:37:34;6.25;;;2.50;;
9716;SDS011;4897;43.570;27.832;2022-07-23T01:40:04;4.05;;;2.40;;
9716;SDS011;4897;43.570;27.832;2022-07-23T01:42:32;11.13;;;2.40;;
9716;SDS011;4897;43.570;27.832;2022-07-23T01:44:59;3.10;;;2.15;;
9716;SDS011;4897;43.570;27.832;2022-07-23T01:47:26;2.53;;;2.08;;
9716;SDS011;4897;43.570;27.832;2022-07-23T01:49:53;8.80;;;2.50;;
9716;SDS011;4897;43.570;27.832;2022-07-23T01:52:20;10.77;;;2.60;;
9716;SDS011;4897;43.570;27.832;2022-07-23T01:54:46;7.60;;;2.72;;
9716;SDS011;4897;43.570;27.832;2022-07-23T01:57:15;5.03;;;2.90;;
9716;SDS011;4897;43.570;27.832;2022-07-23T01:59:42;3.55;;;2.40;;
9716;SDS011;4897;43.570;27.832;2022-07-23T02:02:09;7.20;;;2.78;;
9716;SDS011;4897;43.570;27.832;2022-07-23T02:04:36;4.20;;;2.42;;
9716;SDS011;4897;43.570;27.832;2022-07-23T02:07:03;3.75;;;2.35;;
9716;SDS011;4897;43.570;27.832;2022-07-23T02:09:30;6.10;;;2.47;;
9716;SDS011;4897;43.570;27.832;2022-07-23T02:11:57;6.28;;;2.88;;
9716;SDS011;4897;43.570;27.832;2022-07-23T02:14:26;8.65;;;3.25;;
9716;SDS011;4897;43.570;27.832;2022-07-23T02:16:53;9.63;;;2.97;;
9716;SDS011;4897;43.570;27.832;2022-07-23T02:19:20;7.18;;;2.95;;
9716;SDS011;4897;43.570;27.832;2022-07-23T02:21:47;11.93;;;2.95;;
9716;SDS011;4897;43.570;27.832;2022-07-23T02:24:14;8.65;;;3.10;;
9716;SDS011;4897;43.570;27.832;2022-07-23T02:26:42;11.38;;;3.33;;
9716;SDS011;4897;43.570;27.832;2022-07-23T02:29:09;16.92;;;2.80;;
9716;SDS011;4897;43.570;27.832;2022-07-23T02:31:37;7.40;;;3.08;;
9716;SDS011;4897;43.570;27.832;2022-07-23T02:34:04;7.55;;;3.33;;
9716;SDS011;4897;43.570;27.832;2022-07-23T02:36:31;6.78;;;3.20;;
9716;SDS011;4897;43.570;27.832;2022-07-23T02:38:58;6.80;;;3.03;;
9716;SDS011;4897;43.570;27.832;2022-07-23T02:41:25;4.57;;;2.80;;
9716;SDS011;4897;43.570;27.832;2022-07-23T02:43:52;3.05;;;2.58;;
9716;SDS011;4897;43.570;27.832;2022-07-23T02:46:19;7.68;;;2.22;;
9716;SDS011;4897;43.570;27.832;2022-07-23T02:48:47;7.13;;;2.50;;
9716;SDS011;4897;43.570;27.832;2022-07-23T02:51:14;4.45;;;2.13;;
9716;SDS011;4897;43.570;27.832;2022-07-23T02:53:41;8.15;;;2.58;;
9716;SDS011;4897;43.570;27.832;2022-07-23T02:56:08;11.57;;;3.70;;
9716;SDS011;4897;43.570;27.832;2022-07-23T02:58:35;7.97;;;4.20;;
9716;SDS011;4897;43.570;27.832;2022-07-23T03:01:02;9.32;;;3.58;;
9716;SDS011;4897;43.570;27.832;2022-07-23T03:03:29;4.88;;;2.90;;
9716;SDS011;4897;43.570;27.832;2022-07-23T03:05:58;9.05;;;3.17;;
9716;SDS011;4897;43.570;27.832;2022-07-23T03:08:25;17.55;;;3.55;;
9716;SDS011;4897;43.570;27.832;2022-07-23T03:10:51;13.52;;;3.78;;
9716;SDS011;4897;43.570;27.832;2022-07-23T03:13:18;11.48;;;3.10;;
9716;SDS011;4897;43.570;27.832;2022-07-23T03:15:45;4.40;;;2.67;;
9716;SDS011;4897;43.570;27.832;2022-07-23T03:18:12;9.95;;;2.78;;
9716;SDS011;4897;43.570;27.832;2022-07-23T03:20:39;7.38;;;2.28;;
9716;SDS011;4897;43.570;27.832;2022-07-23T03:23:08;9.68;;;2.70;;
9716;SDS011;4897;43.570;27.832;2022-07-23T03:25:34;8.23;;;2.90;;
9716;SDS011;4897;43.570;27.832;2022-07-23T03:28:02;9.00;;;2.42;;
9716;SDS011;4897;43.570;27.832;2022-07-23T03:30:30;17.85;;;2.58;;
9716;SDS011;4897;43.570;27.832;2022-07-23T03:32:57;10.82;;;2.70;;
9716;SDS011;4897;43.570;27.832;2022-07-23T03:35:23;10.43;;;2.92;;
9716;SDS011;4897;43.570;27.832;2022-07-23T03:37:50;5.22;;;2.75;;
9716;SDS011;4897;43.570;27.832;2022-07-23T03:40:19;10.10;;;2.88;;
9716;SDS011;4897;43.570;27.832;2022-07-23T03:42:46;13.35;;;2.90;;
9716;SDS011;4897;43.570;27.832;2022-07-23T03:45:12;11.85;;;3.00;;
9716;SDS011;4897;43.570;27.832;2022-07-23T03:47:39;9.13;;;2.92;;
9716;SDS011;4897;43.570;27.832;2022-07-23T03:50:07;12.70;;;2.80;;
9716;SDS011;4897;43.570;27.832;2022-07-23T03:52:34;7.35;;;3.08;;
9716;SDS011;4897;43.570;27.832;2022-07-23T03:55:01;6.75;;;2.95;;
9716;SDS011;4897;43.570;27.832;2022-07-23T03:57:29;10.70;;;3.42;;
9716;SDS011;4897;43.570;27.832;2022-07-23T03:59:56;19.08;;;3.70;;
9716;SDS011;4897;43.570;27.832;2022-07-23T04:02:23;17.90;;;3.55;;
9716;SDS011;4897;43.570;27.832;2022-07-23T04:04:51;13.20;;;3.58;;
9716;SDS011;4897;43.570;27.832;2022-07-23T04:07:18;13.80;;;3.42;;
9716;SDS011;4897;43.570;27.832;2022-07-23T04:09:44;9.18;;;3.38;;
9716;SDS011;4897;43.570;27.832;2022-07-23T04:12:11;15.52;;;3.58;;
9716;SDS011;4897;43.570;27.832;2022-07-23T04:14:40;14.38;;;3.38;;
9716;SDS011;4897;43.570;27.832;2022-07-23T04:17:07;10.35;;;3.53;;
9716;SDS011;4897;43.570;27.832;2022-07-23T04:19:34;12.00;;;3.67;;
9716;SDS011;4897;43.570;27.832;2022-07-23T04:22:05;11.10;;;3.63;;
9716;SDS011;4897;43.570;27.832;2022-07-23T04:24:32;6.40;;;3.45;;
9716;SDS011;4897;43.570;27.832;2022-07-23T04:26:59;6.93;;;3.50;;
9716;SDS011;4897;43.570;27.832;2022-07-23T04:29:26;16.88;;;3.78;;
9716;SDS011;4897;43.570;27.832;2022-07-23T04:31:54;12.40;;;4.45;;
9716;SDS011;4897;43.570;27.832;2022-07-23T04:34:21;12.48;;;3.88;;
9716;SDS011;4897;43.570;27.832;2022-07-23T04:36:48;7.90;;;3.60;;
9716;SDS011;4897;43.570;27.832;2022-07-23T04:39:15;11.55;;;4.68;;
9716;SDS011;4897;43.570;27.832;2022-07-23T04:41:42;16.48;;;4.00;;
9716;SDS011;4897;43.570;27.832;2022-07-23T04:44:09;5.65;;;3.80;;
9716;SDS011;4897;43.570;27.832;2022-07-23T04:46:36;11.80;;;4.10;;
9716;SDS011;4897;43.570;27.832;2022-07-23T04:49:04;20.77;;;4.03;;
9716;SDS011;4897;43.570;27.832;2022-07-23T04:51:33;20.23;;;4.57;;
9716;SDS011;4897;43.570;27.832;2022-07-23T04:54:00;11.40;;;4.40;;
9716;SDS011;4897;43.570;27.832;2022-07-23T04:56:27;14.52;;;4.47;;
9716;SDS011;4897;43.570;27.832;2022-07-23T04:58:54;8.10;;;4.47;;
9716;SDS011;4897;43.570;27.832;2022-07-23T05:01:20;14.63;;;5.03;;
9716;SDS011;4897;43.570;27.832;2022-07-23T05:03:48;21.25;;;5.35;;
9716;SDS011;4897;43.570;27.832;2022-07-23T05:06:16;22.95;;;5.03;;
9716;SDS011;4897;43.570;27.832;2022-07-23T05:08:43;21.25;;;5.50;;
9716;SDS011;4897;43.570;27.832;2022-07-23T05:11:10;24.15;;;4.97;;
9716;SDS011;4897;43.570;27.832;2022-07-23T05:13:36;14.48;;;4.18;;
9716;SDS011;4897;43.570;27.832;2022-07-23T05:16:04;27.65;;;4.90;;
9716;SDS011;4897;43.570;27.832;2022-07-23T05:18:31;16.48;;;5.00;;
9716;SDS011;4897;43.570;27.832;2022-07-23T05:20:58;20.98;;;5.40;;
9716;SDS011;4897;43.570;27.832;2022-07-23T05:23:26;8.77;;;4.25;;
9716;SDS011;4897;43.570;27.832;2022-07-23T05:25:53;22.45;;;4.75;;
9716;SDS011;4897;43.570;27.832;2022-07-23T05:28:20;13.63;;;4.68;;
9716;SDS011;4897;43.570;27.832;2022-07-23T05:30:47;9.93;;;4.30;;
9716;SDS011;4897;43.570;27.832;2022-07-23T05:33:14;10.80;;;4.00;;
9716;SDS011;4897;43.570;27.832;2022-07-23T05:35:41;11.70;;;3.72;;
9716;SDS011;4897;43.570;27.832;2022-07-23T05:38:08;8.32;;;3.60;;
9716;SDS011;4897;43.570;27.832;2022-07-23T05:40:36;10.48;;;3.70;;
9716;SDS011;4897;43.570;27.832;2022-07-23T05:43:03;4.63;;;3.08;;
9716;SDS011;4897;43.570;27.832;2022-07-23T05:45:30;15.10;;;3.53;;
9716;SDS011;4897;43.570;27.832;2022-07-23T05:47:57;7.30;;;3.60;;
9716;SDS011;4897;43.570;27.832;2022-07-23T05:50:24;5.30;;;3.53;;
9716;SDS011;4897;43.570;27.832;2022-07-23T05:52:51;6.68;;;3.33;;
9716;SDS011;4897;43.570;27.832;2022-07-23T05:55:18;11.25;;;3.78;;
9716;SDS011;4897;43.570;27.832;2022-07-23T05:57:46;7.88;;;3.78;;
9716;SDS011;4897;43.570;27.832;2022-07-23T06:00:13;12.27;;;3.78;;
9716;SDS011;4897;43.570;27.832;2022-07-23T06:02:41;6.45;;;3.58;;
9716;SDS011;4897;43.570;27.832;2022-07-23T06:05:08;6.28;;;3.63;;
9716;SDS011;4897;43.570;27.832;2022-07-23T06:07:35;9.65;;;3.85;;
9716;SDS011;4897;43.570;27.832;2022-07-23T06:10:02;10.63;;;3.70;;
9716;SDS011;4897;43.570;27.832;2022-07-23T06:12:30;9.32;;;3.65;;
9716;SDS011;4897;43.570;27.832;2022-07-23T06:14:59;11.57;;;4.43;;
9716;SDS011;4897;43.570;27.832;2022-07-23T06:17:26;7.45;;;3.67;;
9716;SDS011;4897;43.570;27.832;2022-07-23T06:19:56;7.80;;;4.15;;
9716;SDS011;4897;43.570;27.832;2022-07-23T06:22:23;6.35;;;4.22;;
9716;SDS011;4897;43.570;27.832;2022-07-23T06:24:50;9.73;;;3.90;;
9716;SDS011;4897;43.570;27.832;2022-07-23T06:27:17;10.65;;;4.18;;
9716;SDS011;4897;43.570;27.832;2022-07-23T06:29:44;15.35;;;4.13;;
9716;SDS011;4897;43.570;27.832;2022-07-23T06:32:13;12.35;;;4.22;;
9716;SDS011;4897;43.570;27.832;2022-07-23T06:34:42;9.43;;;4.32;;
9716;SDS011;4897;43.570;27.832;2022-07-23T06:37:09;6.88;;;3.42;;
9716;SDS011;4897;43.570;27.832;2022-07-23T06:39:36;5.82;;;3.28;;
9716;SDS011;4897;43.570;27.832;2022-07-23T06:42:03;6.45;;;3.40;;
9716;SDS011;4897;43.570;27.832;2022-07-23T06:44:30;9.07;;;3.25;;
9716;SDS011;4897;43.570;27.832;2022-07-23T06:46:57;3.97;;;3.17;;
9716;SDS011;4897;43.570;27.832;2022-07-23T06:49:25;5.50;;;3.30;;
9716;SDS011;4897;43.570;27.832;2022-07-23T06:51:52;8.40;;;3.28;;
9716;SDS011;4897;43.570;27.832;2022-07-23T06:54:19;4.22;;;3.30;;
9716;SDS011;4897;43.570;27.832;2022-07-23T06:56:45;3.60;;;3.00;;
9716;SDS011;4897;43.570;27.832;2022-07-23T06:59:12;9.63;;;3.13;;
9716;SDS011;4897;43.570;27.832;2022-07-23T07:01:39;4.78;;;2.90;;
9716;SDS011;4897;43.570;27.832;2022-07-23T07:04:06;3.65;;;2.80;;
9716;SDS011;4897;43.570;27.832;2022-07-23T07:06:35;3.83;;;3.35;;
9716;SDS011;4897;43.570;27.832;2022-07-23T07:09:02;9.55;;;3.75;;
9716;SDS011;4897;43.570;27.832;2022-07-23T07:11:29;4.55;;;3.35;;
9716;SDS011;4897;43.570;27.832;2022-07-23T07:13:56;4.70;;;3.42;;
9716;SDS011;4897;43.570;27.832;2022-07-23T07:16:24;7.15;;;3.10;;
9716;SDS011;4897;43.570;27.832;2022-07-23T07:18:51;7.97;;;3.05;;
9716;SDS011;4897;43.570;27.832;2022-07-23T07:21:18;7.43;;;3.08;;
9716;SDS011;4897;43.570;27.832;2022-07-23T07:23:46;7.07;;;3.50;;
9716;SDS011;4897;43.570;27.832;2022-07-23T07:26:13;4.47;;;3.30;;
9716;SDS011;4897;43.570;27.832;2022-07-23T07:28:40;6.68;;;3.20;;
9716;SDS011;4897;43.570;27.832;2022-07-23T07:31:07;3.80;;;3.28;;
9716;SDS011;4897;43.570;27.832;2022-07-23T07:33:33;4.72;;;3.10;;
9716;SDS011;4897;43.570;27.832;2022-07-23T07:36:00;4.25;;;3.38;;
9716;SDS011;4897;43.570;27.832;2022-07-23T07:38:28;7.57;;;3.83;;
9716;SDS011;4897;43.570;27.832;2022-07-23T07:40:56;3.75;;;3.10;;
9716;SDS011;4897;43.570;27.832;2022-07-23T07:43:23;12.30;;;3.20;;
9716;SDS011;4897;43.570;27.832;2022-07-23T07:45:50;5.63;;;3.72;;
9716;SDS011;4897;43.570;27.832;2022-07-23T07:48:17;4.75;;;3.08;;
9716;SDS011;4897;43.570;27.832;2022-07-23T07:50:44;8.02;;;3.15;;
9716;SDS011;4897;43.570;27.832;2022-07-23T07:53:11;8.73;;;3.50;;
9716;SDS011;4897;43.570;27.832;2022-07-23T07:55:38;4.07;;;3.53;;
9716;SDS011;4897;43.570;27.832;2022-07-23T07:58:06;4.85;;;3.55;;
9716;SDS011;4897;43.570;27.832;2022-07-23T08:00:33;4.57;;;3.20;;
9716;SDS011;4897;43.570;27.832;2022-07-23T08:03:00;7.85;;;3.60;;
9716;SDS011;4897;43.570;27.832;2022-07-23T08:05:27;5.25;;;3.30;;
9716;SDS011;4897;43.570;27.832;2022-07-23T08:07:56;5.55;;;3.05;;
9716;SDS011;4897;43.570;27.832;2022-07-23T08:10:24;4.90;;;3.60;;
9716;SDS011;4897;43.570;27.832;2022-07-23T08:12:52;4.05;;;3.50;;
9716;SDS011;4897;43.570;27.832;2022-07-23T08:15:23;5.15;;;3.20;;
9716;SDS011;4897;43.570;27.832;2022-07-23T08:17:51;5.78;;;3.72;;
9716;SDS011;4897;43.570;27.832;2022-07-23T08:20:19;4.38;;;3.30;;
9716;SDS011;4897;43.570;27.832;2022-07-23T08:22:48;3.40;;;2.95;;
9716;SDS011;4897;43.570;27.832;2022-07-23T08:25:17;9.77;;;3.20;;
9716;SDS011;4897;43.570;27.832;2022-07-23T08:27:48;15.38;;;2.97;;
9716;SDS011;4897;43.570;27.832;2022-07-23T08:30:15;2.78;;;2.55;;
9716;SDS011;4897;43.570;27.832;2022-07-23T08:32:52;8.32;;;3.38;;
9716;SDS011;4897;43.570;27.832;2022-07-23T08:35:24;5.13;;;3.28;;
9716;SDS011;4897;43.570;27.832;2022-07-23T08:37:53;5.97;;;3.45;;
9716;SDS011;4897;43.570;27.832;2022-07-23T08:40:21;3.97;;;3.13;;
9716;SDS011;4897;43.570;27.832;2022-07-23T08:42:48;7.13;;;3.13;;
9716;SDS011;4897;43.570;27.832;2022-07-23T08:45:17;6.18;;;3.20;;
9716;SDS011;4897;43.570;27.832;2022-07-23T08:47:47;7.80;;;3.70;;
9716;SDS011;4897;43.570;27.832;2022-07-23T08:50:17;9.32;;;3.38;;
9716;SDS011;4897;43.570;27.832;2022-07-23T08:52:45;8.20;;;3.15;;
9716;SDS011;4897;43.570;27.832;2022-07-23T08:55:13;6.65;;;2.88;;
9716;SDS011;4897;43.570;27.832;2022-07-23T09:01:17;6.45;;;2.90;;
9716;SDS011;4897;43.570;27.832;2022-07-23T09:03:45;4.80;;;3.00;;
9716;SDS011;4897;43.570;27.832;2022-07-23T09:06:12;8.55;;;3.00;;
9716;SDS011;4897;43.570;27.832;2022-07-23T09:08:40;8.15;;;3.50;;
9716;SDS011;4897;43.570;27.832;2022-07-23T09:11:09;9.80;;;3.40;;
9716;SDS011;4897;43.570;27.832;2022-07-23T09:13:38;8.73;;;3.00;;
9716;SDS011;4897;43.570;27.832;2022-07-23T09:16:08;7.00;;;2.85;;
9716;SDS011;4897;43.570;27.832;2022-07-23T09:18:42;6.25;;;3.15;;
9716;SDS011;4897;43.570;27.832;2022-07-23T09:21:16;5.00;;;3.08;;
9716;SDS011;4897;43.570;27.832;2022-07-23T09:23:49;4.72;;;2.92;;
9716;SDS011;4897;43.570;27.832;2022-07-23T09:26:19;7.05;;;3.05;;
9716;SDS011;4897;43.570;27.832;2022-07-23T09:28:51;7.47;;;2.97;;
9716;SDS011;4897;43.570;27.832;2022-07-23T09:31:19;5.97;;;3.00;;
9716;SDS011;4897;43.570;27.832;2022-07-23T09:33:46;4.13;;;2.90;;
9716;SDS011;4897;43.570;27.832;2022-07-23T09:36:13;7.32;;;3.45;;
9716;SDS011;4897;43.570;27.832;2022-07-23T09:38:52;4.93;;;3.50;;
9716;SDS011;4897;43.570;27.832;2022-07-23T09:41:20;7.50;;;2.92;;
9716;SDS011;4897;43.570;27.832;2022-07-23T09:43:54;3.30;;;2.60;;
9716;SDS011;4897;43.570;27.832;2022-07-23T09:46:22;8.52;;;2.92;;
9716;SDS011;4897;43.570;27.832;2022-07-23T09:48:52;7.55;;;3.00;;
9716;SDS011;4897;43.570;27.832;2022-07-23T09:51:20;7.18;;;2.97;;
9716;SDS011;4897;43.570;27.832;2022-07-23T09:53:57;4.93;;;3.10;;
9716;SDS011;4897;43.570;27.832;2022-07-23T09:56:24;6.55;;;2.70;;
9716;SDS011;4897;43.570;27.832;2022-07-23T09:58:53;5.10;;;2.80;;
9716;SDS011;4897;43.570;27.832;2022-07-23T10:01:29;5.50;;;3.00;;
9716;SDS011;4897;43.570;27.832;2022-07-23T10:03:57;6.07;;;3.20;;
9716;SDS011;4897;43.570;27.832;2022-07-23T10:06:26;7.32;;;3.17;;
9716;SDS011;4897;43.570;27.832;2022-07-23T10:08:58;8.70;;;3.05;;
9716;SDS011;4897;43.570;27.832;2022-07-23T10:11:26;6.07;;;3.20;;
9716;SDS011;4897;43.570;27.832;2022-07-23T10:13:53;4.45;;;2.72;;
9716;SDS011;4897;43.570;27.832;2022-07-23T10:16:22;5.07;;;2.97;;
9716;SDS011;4897;43.570;27.832;2022-07-23T10:18:49;6.35;;;2.67;;
9716;SDS011;4897;43.570;27.832;2022-07-23T10:21:18;4.75;;;2.63;;
9716;SDS011;4897;43.570;27.832;2022-07-23T10:24:04;8.38;;;2.92;;
9716;SDS011;4897;43.570;27.832;2022-07-23T10:26:44;10.05;;;3.28;;
9716;SDS011;4897;43.570;27.832;2022-07-23T10:29:30;9.00;;;2.60;;
9716;SDS011;4897;43.570;27.832;2022-07-23T10:32:07;3.90;;;2.80;;
9716;SDS011;4897;43.570;27.832;2022-07-23T10:34:44;8.63;;;2.88;;
9716;SDS011;4897;43.570;27.832;2022-07-23T10:37:21;4.93;;;2.55;;
9716;SDS011;4897;43.570;27.832;2022-07-23T10:40:11;6.88;;;2.60;;
9716;SDS011;4897;43.570;27.832;2022-07-23T10:42:40;8.07;;;2.25;;
9716;SDS011;4897;43.570;27.832;2022-07-23T10:45:29;4.10;;;2.60;;
9716;SDS011;4897;43.570;27.832;2022-07-23T10:48:11;6.95;;;2.53;;
9716;SDS011;4897;43.570;27.832;2022-07-23T10:50:40;3.75;;;2.42;;
9716;SDS011;4897;43.570;27.832;2022-07-23T10:53:13;7.72;;;2.40;;
9716;SDS011;4897;43.570;27.832;2022-07-23T10:55:46;5.47;;;2.67;;
9716;SDS011;4897;43.570;27.832;2022-07-23T10:58:18;7.82;;;2.70;;
9716;SDS011;4897;43.570;27.832;2022-07-23T11:00:46;3.47;;;2.70;;
9716;SDS011;4897;43.570;27.832;2022-07-23T11:03:33;5.68;;;2.80;;
9716;SDS011;4897;43.570;27.832;2022-07-23T11:06:07;4.57;;;2.53;;
9716;SDS011;4897;43.570;27.832;2022-07-23T11:08:36;9.07;;;2.80;;
9716;SDS011;4897;43.570;27.832;2022-07-23T11:11:10;7.63;;;2.90;;
9716;SDS011;4897;43.570;27.832;2022-07-23T11:13:39;4.93;;;2.63;;
9716;SDS011;4897;43.570;27.832;2022-07-23T11:16:22;3.88;;;2.80;;
9716;SDS011;4897;43.570;27.832;2022-07-23T11:18:54;3.72;;;2.50;;
9716;SDS011;4897;43.570;27.832;2022-07-23T11:21:41;3.72;;;2.55;;
9716;SDS011;4897;43.570;27.832;2022-07-23T11:24:18;9.05;;;2.60;;
9716;SDS011;4897;43.570;27.832;2022-07-23T11:26:49;3.92;;;2.60;;
9716;SDS011;4897;43.570;27.832;2022-07-23T11:32:23;4.22;;;2.58;;
9716;SDS011;4897;43.570;27.832;2022-07-23T11:34:54;4.63;;;3.25;;
9716;SDS011;4897;43.570;27.832;2022-07-23T11:37:28;5.45;;;2.55;;
9716;SDS011;4897;43.570;27.832;2022-07-23T11:40:00;5.93;;;3.58;;
9716;SDS011;4897;43.570;27.832;2022-07-23T11:42:29;2.95;;;2.40;;
9716;SDS011;4897;43.570;27.832;2022-07-23T11:44:57;3.72;;;2.42;;
9716;SDS011;4897;43.570;27.832;2022-07-23T11:47:24;6.85;;;2.60;;
9716;SDS011;4897;43.570;27.832;2022-07-23T11:49:52;5.75;;;2.50;;
9716;SDS011;4897;43.570;27.832;2022-07-23T11:52:20;7.13;;;2.50;;
9716;SDS011;4897;43.570;27.832;2022-07-23T11:54:49;3.75;;;2.22;;
9716;SDS011;4897;43.570;27.832;2022-07-23T11:57:17;3.80;;;2.20;;
9716;SDS011;4897;43.570;27.832;2022-07-23T11:59:47;3.70;;;2.55;;
9716;SDS011;4897;43.570;27.832;2022-07-23T12:02:19;3.70;;;2.20;;
9716;SDS011;4897;43.570;27.832;2022-07-23T12:04:47;4.40;;;2.58;;
9716;SDS011;4897;43.570;27.832;2022-07-23T12:07:22;4.82;;;2.40;;
9716;SDS011;4897;43.570;27.832;2022-07-23T12:09:54;6.38;;;2.50;;
9716;SDS011;4897;43.570;27.832;2022-07-23T12:12:21;4.80;;;2.40;;
9716;SDS011;4897;43.570;27.832;2022-07-23T12:14:51;5.18;;;2.40;;
9716;SDS011;4897;43.570;27.832;2022-07-23T12:17:19;4.45;;;2.13;;
9716;SDS011;4897;43.570;27.832;2022-07-23T12:19:47;9.13;;;3.15;;
9716;SDS011;4897;43.570;27.832;2022-07-23T12:22:15;4.63;;;3.35;;
9716;SDS011;4897;43.570;27.832;2022-07-23T12:24:57;5.80;;;2.65;;
9716;SDS011;4897;43.570;27.832;2022-07-23T12:27:26;4.35;;;2.70;;
9716;SDS011;4897;43.570;27.832;2022-07-23T12:29:55;5.93;;;2.38;;
9716;SDS011;4897;43.570;27.832;2022-07-23T12:32:22;5.22;;;2.65;;
9716;SDS011;4897;43.570;27.832;2022-07-23T12:34:51;4.82;;;2.30;;
9716;SDS011;4897;43.570;27.832;2022-07-23T12:37:29;3.88;;;2.15;;
9716;SDS011;4897;43.570;27.832;2022-07-23T12:39:57;5.72;;;2.30;;
9716;SDS011;4897;43.570;27.832;2022-07-23T12:42:24;6.80;;;2.40;;
9716;SDS011;4897;43.570;27.832;2022-07-23T12:45:07;2.67;;;2.30;;
9716;SDS011;4897;43.570;27.832;2022-07-23T12:50:39;9.38;;;3.38;;
9716;SDS011;4897;43.570;27.832;2022-07-23T12:53:09;6.38;;;2.60;;
9716;SDS011;4897;43.570;27.832;2022-07-23T12:55:39;5.05;;;2.95;;
9716;SDS011;4897;43.570;27.832;2022-07-23T12:58:11;4.55;;;2.22;;
9716;SDS011;4897;43.570;27.832;2022-07-23T13:00:54;5.47;;;2.85;;
9716;SDS011;4897;43.570;27.832;2022-07-23T13:03:25;5.72;;;2.22;;
9716;SDS011;4897;43.570;27.832;2022-07-23T13:06:05;3.75;;;2.47;;
9716;SDS011;4897;43.570;27.832;2022-07-23T13:08:34;12.73;;;2.83;;
9716;SDS011;4897;43.570;27.832;2022-07-23T13:11:03;3.95;;;2.50;;
9716;SDS011;4897;43.570;27.832;2022-07-23T13:13:31;4.15;;;2.17;;
9716;SDS011;4897;43.570;27.832;2022-07-23T13:16:02;8.77;;;2.90;;
9716;SDS011;4897;43.570;27.832;2022-07-23T13:18:29;6.50;;;2.83;;
9716;SDS011;4897;43.570;27.832;2022-07-23T13:20:56;6.30;;;2.38;;
9716;SDS011;4897;43.570;27.832;2022-07-23T13:23:24;6.68;;;2.50;;
9716;SDS011;4897;43.570;27.832;2022-07-23T13:25:51;3.80;;;2.13;;
9716;SDS011;4897;43.570;27.832;2022-07-23T13:28:19;4.45;;;2.40;;
9716;SDS011;4897;43.570;27.832;2022-07-23T13:30:50;6.38;;;2.47;;
9716;SDS011;4897;43.570;27.832;2022-07-23T13:33:25;5.05;;;2.40;;
9716;SDS011;4897;43.570;27.832;2022-07-23T13:35:53;4.03;;;2.47;;
9716;SDS011;4897;43.570;27.832;2022-07-23T13:38:20;3.95;;;2.35;;
9716;SDS011;4897;43.570;27.832;2022-07-23T13:40:48;3.92;;;2.13;;
9716;SDS011;4897;43.570;27.832;2022-07-23T13:43:17;6.32;;;2.25;;
9716;SDS011;4897;43.570;27.832;2022-07-23T13:45:45;4.35;;;2.30;;
9716;SDS011;4897;43.570;27.832;2022-07-23T13:48:16;7.07;;;2.40;;
9716;SDS011;4897;43.570;27.832;2022-07-23T13:51:02;3.42;;;2.15;;
9716;SDS011;4897;43.570;27.832;2022-07-23T13:53:29;5.93;;;2.13;;
9716;SDS011;4897;43.570;27.832;2022-07-23T13:55:56;3.38;;;2.35;;
9716;SDS011;4897;43.570;27.832;2022-07-23T13:58:23;8.50;;;2.35;;
9716;SDS011;4897;43.570;27.832;2022-07-23T14:00:53;4.47;;;2.15;;
9716;SDS011;4897;43.570;27.832;2022-07-23T14:03:20;4.72;;;2.53;;
9716;SDS011;4897;43.570;27.832;2022-07-23T14:05:49;5.97;;;2.85;;
9716;SDS011;4897;43.570;27.832;2022-07-23T14:08:17;3.53;;;2.63;;
9716;SDS011;4897;43.570;27.832;2022-07-23T14:10:44;6.35;;;2.58;;
9716;SDS011;4897;43.570;27.832;2022-07-23T14:13:11;2.30;;;2.10;;
9716;SDS011;4897;43.570;27.832;2022-07-23T14:15:38;9.32;;;2.70;;
9716;SDS011;4897;43.570;27.832;2022-07-23T14:18:08;3.50;;;2.15;;
9716;SDS011;4897;43.570;27.832;2022-07-23T14:20:35;4.57;;;2.17;;
9716;SDS011;4897;43.570;27.832;2022-07-23T14:23:02;3.67;;;2.20;;
9716;SDS011;4897;43.570;27.832;2022-07-23T14:25:33;6.13;;;2.40;;
9716;SDS011;4897;43.570;27.832;2022-07-23T14:28:03;4.45;;;2.40;;
9716;SDS011;4897;43.570;27.832;2022-07-23T14:30:30;3.92;;;2.42;;
9716;SDS011;4897;43.570;27.832;2022-07-23T14:32:57;11.43;;;2.50;;
9716;SDS011;4897;43.570;27.832;2022-07-23T14:35:24;5.22;;;2.25;;
9716;SDS011;4897;43.570;27.832;2022-07-23T14:37:51;2.55;;;2.00;;
9716;SDS011;4897;43.570;27.832;2022-07-23T14:40:18;2.70;;;2.13;;
9716;SDS011;4897;43.570;27.832;2022-07-23T14:42:46;4.07;;;2.47;;
9716;SDS011;4897;43.570;27.832;2022-07-23T14:45:13;2.88;;;1.98;;
9716;SDS011;4897;43.570;27.832;2022-07-23T14:47:40;8.65;;;2.40;;
9716;SDS011;4897;43.570;27.832;2022-07-23T14:50:18;3.70;;;2.30;;
9716;SDS011;4897;43.570;27.832;2022-07-23T14:52:45;4.38;;;2.15;;
9716;SDS011;4897;43.570;27.832;2022-07-23T14:55:12;2.20;;;1.92;;
9716;SDS011;4897;43.570;27.832;2022-07-23T14:57:42;4.80;;;2.45;;
9716;SDS011;4897;43.570;27.832;2022-07-23T15:00:11;5.22;;;2.25;;
9716;SDS011;4897;43.570;27.832;2022-07-23T15:02:39;4.43;;;2.53;;
9716;SDS011;4897;43.570;27.832;2022-07-23T15:05:06;6.00;;;2.15;;
9716;SDS011;4897;43.570;27.832;2022-07-23T15:07:33;3.80;;;2.30;;
9716;SDS011;4897;43.570;27.832;2022-07-23T15:10:02;4.30;;;2.38;;
9716;SDS011;4897;43.570;27.832;2022-07-23T15:12:33;2.50;;;2.13;;
9716;SDS011;4897;43.570;27.832;2022-07-23T15:14:59;2.47;;;2.08;;
9716;SDS011;4897;43.570;27.832;2022-07-23T15:17:28;6.55;;;2.40;;